Wednesday, September 20, 2017, 9:35 PM EDT

KSBY, Salisbury-wicomico Cty Reg

Location: Salisbury, MD, United States Lat: 38.333
Local Time: 9:35 PM EDT ( 1:35 GMT) Lon: -75.5
Time Zone: US/Eastern Elev: 52 ft

Show me the last for .
Show Decoded

2017-09-20 20:54 METAR KSBY 210054Z 00000KT 10SM CLR 22/21 A2993 RMK AO2 SLP138 T02220206 =
2017-09-20 19:54 METAR KSBY 202354Z 00000KT 10SM CLR 23/21 A2992 RMK AO2 SLP134 6//// T02280206
                 53010 =
2017-09-20 18:54 METAR KSBY 202254Z 30003KT 10SM CLR 26/20 A2991 RMK AO2 SLP129 T02610200 =
2017-09-20 17:54 METAR KSBY 202154Z 34010KT 10SM CLR 28/20 A2990 RMK AO2 SLP127 T02780200 =
2017-09-20 16:54 METAR KSBY 202054Z 34008KT 10SM FEW036 29/20 A2989 RMK AO2 SLP124 6////
                 T02890200 55005 =
2017-09-20 15:54 METAR KSBY 201954Z 31009G15KT 10SM BKN040 BKN120 29/21 A2988 RMK AO2 SLP121
                 T02940206 =
2017-09-20 14:54 METAR KSBY 201854Z 31010KT 10SM FEW039 BKN120 28/20 A2989 RMK AO2 SLP123
                 T02830200 =
2017-09-20 13:54 METAR KSBY 201754Z SCT036 A2990 RMK AO2 SLPNO 6//// 10289 20217 55003 PNO $ =
2017-09-20 12:54 METAR KSBY 201654Z 33010KT 10SM CLR 28/21 A2990 RMK AO2 SLP128 T02830206 =
2017-09-20 11:54 METAR KSBY 201554Z 33012KT 10SM SCT028 27/21 A2991 RMK AO2 SLP130 T02720206 =
2017-09-20 10:54 METAR KSBY 201454Z 31010KT 10SM CLR 26/20 A2991 RMK AO2 SLP131 T02610200 51011 =
2017-09-20 09:54 METAR KSBY 201354Z 32013G18KT 10SM CLR 25/19 A2991 RMK AO2 SLP131 T02500194 =
2017-09-20 08:54 METAR KSBY 201254Z 31008KT 10SM CLR 23/19 A2991 RMK AO2 SLP129 T02330189 =
2017-09-20 07:54 METAR KSBY 201154Z 34009KT 10SM CLR 22/19 A2988 RMK AO2 SLP120 70025 T02170194
                 10217 20206 51013 =
2017-09-20 06:54 METAR KSBY 201054Z 31006KT 10SM FEW021 BKN065 21/19 A2988 RMK AO2 SLP120
                 T02060189 =
2017-09-20 06:03 METAR KSBY 201003Z 31010KT 10SM SCT021 BKN040 21/19 A2986 RMK AO2 T02060194 =
2017-09-20 05:54 METAR KSBY 200954Z AUTO 31006KT 10SM BKN021 OVC042 21/19 A2986 RMK AO2 SLP112
                 T02110194 =
2017-09-20 05:26 METAR KSBY 200926Z AUTO 31008KT 10SM BKN022 BKN031 OVC044 21/19 A2985 RMK AO2
                 T02060194 =
2017-09-20 05:18 METAR KSBY 200918Z AUTO 31010KT 10SM SCT020 BKN031 OVC044 21/19 A2985 RMK AO2
                 T02060194 =
2017-09-20 04:54 METAR KSBY 200854Z AUTO 31008KT 10SM OVC020 21/19 A2984 RMK AO2 SLP108 T02060194
                 51006 =
2017-09-20 03:54 METAR KSBY 200754Z AUTO 31008KT 10SM BKN022 21/19 A2984 RMK AO2 SLP106 T02060194
                 =
2017-09-20 03:50 METAR KSBY 200750Z AUTO 31008KT 10SM BKN022 21/19 A2984 RMK AO2 =
2017-09-20 02:54 METAR KSBY 200654Z AUTO 31008KT 10SM FEW021 BKN050 21/19 A2982 RMK AO2 SLP101
                 T02110194 =
2017-09-20 02:50 METAR KSBY 200650Z AUTO 32011KT 10SM SCT021 BKN050 21/20 A2982 RMK AO2 =
2017-09-20 01:54 METAR KSBY 200554Z AUTO 33010KT 10SM BKN022 OVC046 21/20 A2984 RMK AO2 SLP106
                 60000 T02110200 10217 20206 55002 =
2017-09-20 00:54 METAR KSBY 200454Z AUTO 33011KT 10SM OVC022 22/20 A2983 RMK AO2 SLP105 T02170200
                 402390206 =
2017-09-19 23:54 METAR KSBY 200354Z AUTO 33009KT 10SM OVC022 21/20 A2984 RMK AO2 SLP107 T02110200
                 =
2017-09-19 22:54 METAR KSBY 200254Z AUTO 34011KT 10SM OVC023 21/20 A2984 RMK AO2 SLP108 60000
                 T02110200 50001 =
2017-09-19 21:54 METAR KSBY 200154Z 33010KT 10SM OVC023 21/20 A2985 RMK AO2 RAE35 SLP109 P0000
                 T02110200 =

Support USWX by starting your Amazon purchase here.